Flight Track Log - Related Links

Times and Time Zones

All times are in EDT time to prevent confusion due to time zone crossing. See the KAP169 flight status page for this flight to view local times or setup timezone preferences in your user account.

Time Position Orientation Groundspeed Altitude Reporting Facility
EDT Latitude Longitude Course Direction KTS MPH feet Rate Location/Type
Sun 11:16:00 AM 43.9498 -69.3341 251° West  Level FlightAware Approximate
Sun 11:17:00 AM 43.9384 -69.3797 251° West  Level FlightAware Approximate
Sun 11:18:00 AM 43.9203 -69.4196 227° Southwest  Level FlightAware Approximate
Sun 11:19:00 AM 43.8976 -69.4558 240° Southwest  Level FlightAware Approximate
Sun 11:20:00 AM 43.8805 -69.4977 240° Southwest  Level FlightAware Approximate
Sun 11:21:00 AM 43.8633 -69.5395 240° Southwest  Level FlightAware Approximate
Sun 11:22:00 AM 43.8461 -69.5813 240° Southwest  Level FlightAware Approximate
Sun 11:23:00 AM 43.8289 -69.6230 240° Southwest  Level FlightAware Approximate
Sun 11:24:00 AM 43.8117 -69.6648 240° Southwest  Level FlightAware Approximate
Sun 11:25:00 AM 43.7944 -69.7065 240° Southwest  Level FlightAware Approximate
Sun 11:26:00 AM 43.7771 -69.7482 240° Southwest  Level FlightAware Approximate
Sun 11:27:00 AM 43.7598 -69.7898 240° Southwest  Level FlightAware Approximate
Sun 11:28:00 AM 43.7424 -69.8314 240° Southwest  Level FlightAware Approximate
Sun 11:29:00 AM 43.7250 -69.8729 240° Southwest  Level FlightAware Approximate
Sun 11:30:00 AM 43.7076 -69.9145 240° Southwest  Level FlightAware Approximate
Sun 11:31:00 AM 43.6902 -69.9560 240° Southwest  Level FlightAware Approximate
Sun 11:32:00 AM 43.6728 -69.9975 240° Southwest  Level FlightAware Approximate
Sun 11:33:00 AM 43.6553 -70.0389 240° Southwest  Level FlightAware Approximate
Sun 11:34:00 AM 43.6378 -70.0804 240° Southwest  Level FlightAware Approximate
Sun 11:35:00 AM 43.6204 -70.1218 240° Southwest  Level FlightAware Approximate
Sun 11:36:00 AM 43.6029 -70.1631 240° Southwest  Level FlightAware Approximate
Sun 11:37:00 AM 43.5854 -70.2045 240° Southwest  Level FlightAware Approximate
Sun 11:38:00 AM 43.5678 -70.2458 240° Southwest  Level FlightAware Approximate
Sun 11:39:00 AM 43.5503 -70.2872 240° Southwest  Level FlightAware Approximate
Sun 11:40:00 AM 43.5327 -70.3285 240° Southwest  Level FlightAware Approximate
Sun 11:40:12 AM 43.3000 -70.2333 239° Southwest 148 170 6,100  Level KA90
Sun 11:40:55 AM 43.2833 -70.2500 216° Southwest 147 169 6,100 -58 Level KA90
Sun 11:41:00 AM 43.5152 -70.3697 240° Southwest  Level FlightAware Approximate
Sun 11:41:55 AM 43.2500 -70.3000 228° Southwest 143 165 6,000  Level KA90
Sun 11:42:00 AM 43.4976 -70.4110 240° Southwest  Level FlightAware Approximate
Sun 11:42:53 AM 43.2167 -70.3333 216° Southwest 141 162 6,000  Level KA90
Sun 11:43:00 AM 43.4800 -70.4522 240° Southwest  Level FlightAware Approximate
Sun 11:43:53 AM 43.2000 -70.3833 245° Southwest 140 161 6,000  Level KA90
Sun 11:44:00 AM 43.4624 -70.4934 240° Southwest  Level FlightAware Approximate
Sun 11:44:55 AM 43.1667 -70.4167 216° Southwest 139 160 6,000  Level KA90
Sun 11:45:00 AM 43.4448 -70.5345 239° Southwest  Level FlightAware Approximate
Sun 11:45:53 AM 43.1500 -70.4500 236° Southwest 137 158 6,000  Level KA90
Sun 11:46:56 AM 43.1167 -70.5000 228° Southwest 134 154 6,000  Level KA90
Sun 11:48:02 AM 43.1000 -70.5333 236° Southwest 133 153 6,000  Level KA90
Sun 11:49:01 AM 43.0667 -70.5667 216° Southwest 138 159 6,000  Level KA90
Sun 11:50:06 AM 43.0333 -70.5833 200° South 140 161 6,000  Level KA90
Sun 11:51:01 AM 43.0000 -70.6000 200° South 139 160 6,000  Level KA90
Sun 11:52:07 AM 42.9667 -70.6333 216° Southwest 137 158 6,000  Level KA90
Sun 11:53:05 AM 42.9333 -70.6500 200° South 136 157 6,000  Level KA90
Sun 11:54:08 AM 42.9000 -70.6833 216° Southwest 134 154 6,000  Level KA90
Sun 11:55:07 AM 42.8667 -70.7167 216° Southwest 136 157 6,000 -154 Level KA90
Sun 11:56:05 AM 42.8333 -70.7333 200° South 143 165 5,700 -396 Descending KA90
Sun 11:56:53 AM 42.8000 -70.7667 216° Southwest 149 171 5,300 -541 Descending KA90
Sun 11:58:07 AM 42.7667 -70.8000 216° Southwest 156 180 4,600 -600 Descending KA90
Sun 11:58:53 AM 42.7333 -70.8167 200° South 158 182 4,100 -333 Descending KA90
Sun 11:59:55 AM 42.6833 -70.8500 206° Southwest 150 173 4,000 -49 Descending KA90
Sun 12:00:55 PM 42.6500 -70.8667 200° South 141 162 4,000  Level KA90
Sun 12:01:55 PM 42.6167 -70.8833 200° South 138 159 4,000  Level KA90
Sun 12:02:47 PM 42.5833 -70.9000 200° South 146 168 4,000 -151 Level KA90
Sun 12:03:54 PM 42.5333 -70.9167 194° South 151 174 3,700 -541 Descending KA90
Sun 12:04:49 PM 42.5000 -70.9333 200° South 155 178 2,900 -956 Descending KA90
Sun 12:05:47 PM 42.4667 -70.9500 200° South 150 173 1,900 -893 Descending KA90
Sun 12:06:50 PM 42.4167 -70.9833 206° Southwest 152 175 1,100 -744 Descending KA90
Sun 12:07:48 PM 42.3833 -71.0000 200° South 135 155 400 -724 Descending KA90
Sun 12:09:00 PM 42.3630 -71.0064 203° Southwest  Level Estimated
Sun 12:16:00 PM 42.3630 -71.0064 203° Southwest  Level Estimated

Login

Don't have an account? Register now (free) for customized features, flight alerts, and more!